sensor_id;sensor_type;location;lat;lon;timestamp;pressure;altitude;pressure_sealevel;temperature;humidity
60852;BME280;48553;50.766;2.900;2024-01-25T00:01:41;102266.47;;;7.95;100.00
60852;BME280;48553;50.766;2.900;2024-01-25T00:04:41;102282.84;;;7.95;100.00
60852;BME280;48553;50.766;2.900;2024-01-25T00:07:48;102271.38;;;7.93;100.00
60852;BME280;48553;50.766;2.900;2024-01-25T00:10:49;102274.38;;;7.92;100.00
60852;BME280;48553;50.766;2.900;2024-01-25T00:13:49;102283.97;;;7.89;100.00
60852;BME280;48553;50.766;2.900;2024-01-25T00:16:50;102292.41;;;7.88;100.00
60852;BME280;48553;50.766;2.900;2024-01-25T00:19:51;102291.59;;;7.87;100.00
60852;BME280;48553;50.766;2.900;2024-01-25T00:22:52;102290.81;;;7.87;100.00
60852;BME280;48553;50.766;2.900;2024-01-25T00:25:52;102284.53;;;7.86;100.00
60852;BME280;48553;50.766;2.900;2024-01-25T00:28:53;102279.34;;;7.85;100.00
60852;BME280;48553;50.766;2.900;2024-01-25T00:31:53;102276.38;;;7.81;100.00
60852;BME280;48553;50.766;2.900;2024-01-25T00:34:54;102285.09;;;7.78;100.00
60852;BME280;48553;50.766;2.900;2024-01-25T00:37:55;102291.66;;;7.77;100.00
60852;BME280;48553;50.766;2.900;2024-01-25T00:40:55;102284.56;;;7.76;100.00
60852;BME280;48553;50.766;2.900;2024-01-25T00:43:56;102290.31;;;7.74;100.00
60852;BME280;48553;50.766;2.900;2024-01-25T00:46:57;102287.03;;;7.72;100.00
60852;BME280;48553;50.766;2.900;2024-01-25T00:49:58;102266.03;;;7.73;100.00
60852;BME280;48553;50.766;2.900;2024-01-25T00:52:58;102278.59;;;7.69;100.00
60852;BME280;48553;50.766;2.900;2024-01-25T00:55:59;102292.22;;;7.69;100.00
60852;BME280;48553;50.766;2.900;2024-01-25T00:59:00;102287.31;;;7.71;100.00
60852;BME280;48553;50.766;2.900;2024-01-25T01:02:01;102278.84;;;7.67;100.00
60852;BME280;48553;50.766;2.900;2024-01-25T01:05:05;102266.59;;;7.65;100.00
60852;BME280;48553;50.766;2.900;2024-01-25T01:08:06;102274.22;;;7.63;100.00
60852;BME280;48553;50.766;2.900;2024-01-25T01:11:06;102283.25;;;7.63;100.00
60852;BME280;48553;50.766;2.900;2024-01-25T01:14:06;102289.25;;;7.60;100.00
60852;BME280;48553;50.766;2.900;2024-01-25T01:17:07;102289.53;;;7.59;100.00
60852;BME280;48553;50.766;2.900;2024-01-25T01:20:08;102277.78;;;7.58;100.00
60852;BME280;48553;50.766;2.900;2024-01-25T01:23:08;102277.53;;;7.55;100.00
60852;BME280;48553;50.766;2.900;2024-01-25T01:26:09;102274.81;;;7.55;100.00
60852;BME280;48553;50.766;2.900;2024-01-25T01:29:09;102291.72;;;7.51;100.00
60852;BME280;48553;50.766;2.900;2024-01-25T01:32:10;102283.03;;;7.49;100.00
60852;BME280;48553;50.766;2.900;2024-01-25T01:35:11;102274.31;;;7.47;100.00
60852;BME280;48553;50.766;2.900;2024-01-25T01:38:12;102278.66;;;7.48;100.00
60852;BME280;48553;50.766;2.900;2024-01-25T01:41:13;102298.56;;;7.49;100.00
60852;BME280;48553;50.766;2.900;2024-01-25T01:44:13;102307.31;;;7.46;100.00
60852;BME280;48553;50.766;2.900;2024-01-25T01:47:13;102297.19;;;7.46;100.00
60852;BME280;48553;50.766;2.900;2024-01-25T01:50:14;102293.38;;;7.42;100.00
60852;BME280;48553;50.766;2.900;2024-01-25T01:53:15;102289.31;;;7.40;100.00
60852;BME280;48553;50.766;2.900;2024-01-25T01:56:15;102284.97;;;7.34;100.00
60852;BME280;48553;50.766;2.900;2024-01-25T01:59:16;102287.97;;;7.32;100.00
60852;BME280;48553;50.766;2.900;2024-01-25T02:02:17;102299.94;;;7.31;100.00
60852;BME280;48553;50.766;2.900;2024-01-25T02:05:17;102288.78;;;7.32;100.00
60852;BME280;48553;50.766;2.900;2024-01-25T02:08:18;102289.03;;;7.31;100.00
60852;BME280;48553;50.766;2.900;2024-01-25T02:11:20;102289.88;;;7.31;100.00
60852;BME280;48553;50.766;2.900;2024-01-25T02:14:21;102291.25;;;7.29;100.00
60852;BME280;48553;50.766;2.900;2024-01-25T02:17:21;102282.53;;;7.27;100.00
60852;BME280;48553;50.766;2.900;2024-01-25T02:20:22;102279.53;;;7.23;100.00
60852;BME280;48553;50.766;2.900;2024-01-25T02:23:22;102291.78;;;7.21;100.00
60852;BME280;48553;50.766;2.900;2024-01-25T02:26:23;102300.78;;;7.21;100.00
60852;BME280;48553;50.766;2.900;2024-01-25T02:29:24;102300.78;;;7.21;100.00
60852;BME280;48553;50.766;2.900;2024-01-25T02:32:24;102298.31;;;7.20;100.00
60852;BME280;48553;50.766;2.900;2024-01-25T02:35:25;102299.69;;;7.17;100.00
60852;BME280;48553;50.766;2.900;2024-01-25T02:38:25;102292.34;;;7.18;100.00
60852;BME280;48553;50.766;2.900;2024-01-25T02:41:29;102274.91;;;7.14;100.00
60852;BME280;48553;50.766;2.900;2024-01-25T02:44:29;102289.34;;;7.14;100.00
60852;BME280;48553;50.766;2.900;2024-01-25T02:47:30;102280.63;;;7.12;100.00
60852;BME280;48553;50.766;2.900;2024-01-25T02:50:30;102291.78;;;7.10;100.00
60852;BME280;48553;50.766;2.900;2024-01-25T02:53:31;102318.25;;;7.10;100.00
60852;BME280;48553;50.766;2.900;2024-01-25T02:56:31;102316.34;;;7.10;100.00
60852;BME280;48553;50.766;2.900;2024-01-25T02:59:35;102304.34;;;7.11;100.00
60852;BME280;48553;50.766;2.900;2024-01-25T03:02:35;102301.63;;;7.06;100.00
60852;BME280;48553;50.766;2.900;2024-01-25T03:05:35;102290.44;;;7.03;100.00
60852;BME280;48553;50.766;2.900;2024-01-25T03:08:36;102277.09;;;7.01;100.00
60852;BME280;48553;50.766;2.900;2024-01-25T03:11:36;102291.56;;;7.02;100.00
60852;BME280;48553;50.766;2.900;2024-01-25T03:14:37;102295.09;;;7.02;100.00
60852;BME280;48553;50.766;2.900;2024-01-25T03:17:37;102280.91;;;7.00;100.00
60852;BME280;48553;50.766;2.900;2024-01-25T03:20:38;102264.28;;;6.97;100.00
60852;BME280;48553;50.766;2.900;2024-01-25T03:23:39;102261.84;;;6.95;100.00
60852;BME280;48553;50.766;2.900;2024-01-25T03:26:39;102273.00;;;6.94;100.00
60852;BME280;48553;50.766;2.900;2024-01-25T03:29:43;102278.47;;;6.94;100.00
60852;BME280;48553;50.766;2.900;2024-01-25T03:32:43;102283.66;;;6.95;100.00
60852;BME280;48553;50.766;2.900;2024-01-25T03:35:44;102274.38;;;6.96;100.00
60852;BME280;48553;50.766;2.900;2024-01-25T03:38:44;102274.94;;;6.93;100.00
60852;BME280;48553;50.766;2.900;2024-01-25T03:41:45;102268.94;;;6.91;100.00
60852;BME280;48553;50.766;2.900;2024-01-25T03:44:45;102286.34;;;6.90;100.00
60852;BME280;48553;50.766;2.900;2024-01-25T03:47:46;102277.09;;;6.91;100.00
60852;BME280;48553;50.766;2.900;2024-01-25T03:50:46;102265.66;;;6.89;100.00
60852;BME280;48553;50.766;2.900;2024-01-25T03:53:47;102260.47;;;6.87;100.00
60852;BME280;48553;50.766;2.900;2024-01-25T03:56:48;102249.84;;;6.86;100.00
60852;BME280;48553;50.766;2.900;2024-01-25T03:59:48;102258.03;;;6.86;100.00
60852;BME280;48553;50.766;2.900;2024-01-25T04:02:49;102258.03;;;6.86;100.00
60852;BME280;48553;50.766;2.900;2024-01-25T04:05:49;102263.50;;;6.86;100.00
60852;BME280;48553;50.766;2.900;2024-01-25T04:08:49;102257.50;;;6.84;100.00
60852;BME280;48553;50.766;2.900;2024-01-25T04:11:50;102248.78;;;6.82;100.00
60852;BME280;48553;50.766;2.900;2024-01-25T04:14:50;102247.41;;;6.79;100.00
60852;BME280;48553;50.766;2.900;2024-01-25T04:17:51;102259.13;;;6.80;100.00
60852;BME280;48553;50.766;2.900;2024-01-25T04:20:53;102259.38;;;6.78;100.00
60852;BME280;48553;50.766;2.900;2024-01-25T04:23:53;102264.28;;;6.76;100.00
60852;BME280;48553;50.766;2.900;2024-01-25T04:26:54;102260.75;;;6.76;100.00
60852;BME280;48553;50.766;2.900;2024-01-25T04:29:54;102255.56;;;6.74;100.00
60852;BME280;48553;50.766;2.900;2024-01-25T04:32:55;102250.09;;;6.74;100.00
60852;BME280;48553;50.766;2.900;2024-01-25T04:35:55;102246.03;;;6.72;100.00
60852;BME280;48553;50.766;2.900;2024-01-25T04:38:56;102241.69;;;6.71;100.00
60852;BME280;48553;50.766;2.900;2024-01-25T04:41:56;102250.41;;;6.73;100.00
60852;BME280;48553;50.766;2.900;2024-01-25T04:44:57;102237.31;;;6.69;100.00
60852;BME280;48553;50.766;2.900;2024-01-25T04:47:57;102237.31;;;6.69;100.00
60852;BME280;48553;50.766;2.900;2024-01-25T04:50:57;102253.94;;;6.68;100.00
60852;BME280;48553;50.766;2.900;2024-01-25T04:53:59;102253.66;;;6.64;100.00
60852;BME280;48553;50.766;2.900;2024-01-25T04:56:59;102257.19;;;6.65;100.00
60852;BME280;48553;50.766;2.900;2024-01-25T04:59:59;102262.94;;;6.63;100.00
60852;BME280;48553;50.766;2.900;2024-01-25T05:03:00;102276.56;;;6.63;100.00
60852;BME280;48553;50.766;2.900;2024-01-25T05:06:00;102279.81;;;6.60;100.00
60852;BME280;48553;50.766;2.900;2024-01-25T05:09:01;102283.38;;;6.61;100.00
60852;BME280;48553;50.766;2.900;2024-01-25T05:12:01;102272.19;;;6.57;100.00
60852;BME280;48553;50.766;2.900;2024-01-25T05:15:02;102258.56;;;6.62;100.00
60852;BME280;48553;50.766;2.900;2024-01-25T05:18:03;102258.81;;;6.56;100.00
60852;BME280;48553;50.766;2.900;2024-01-25T05:21:03;102263.47;;;6.55;100.00
60852;BME280;48553;50.766;2.900;2024-01-25T05:24:04;102254.75;;;6.53;100.00
60852;BME280;48553;50.766;2.900;2024-01-25T05:27:04;102262.09;;;6.53;100.00
60852;BME280;48553;50.766;2.900;2024-01-25T05:30:06;102261.00;;;6.54;100.00
60852;BME280;48553;50.766;2.900;2024-01-25T05:33:06;102256.66;;;6.53;100.00
60852;BME280;48553;50.766;2.900;2024-01-25T05:36:07;102253.13;;;6.52;100.00
60852;BME280;48553;50.766;2.900;2024-01-25T05:39:07;102245.47;;;6.49;100.00
60852;BME280;48553;50.766;2.900;2024-01-25T05:42:08;102251.75;;;6.50;100.00
60852;BME280;48553;50.766;2.900;2024-01-25T05:45:09;102252.84;;;6.48;100.00
60852;BME280;48553;50.766;2.900;2024-01-25T05:48:09;102247.94;;;6.45;100.00
60852;BME280;48553;50.766;2.900;2024-01-25T05:51:10;102244.91;;;6.47;100.00
60852;BME280;48553;50.766;2.900;2024-01-25T05:54:10;102231.03;;;6.48;100.00
60852;BME280;48553;50.766;2.900;2024-01-25T05:57:11;102229.13;;;6.49;100.00
60852;BME280;48553;50.766;2.900;2024-01-25T06:00:12;102232.41;;;6.51;100.00
60852;BME280;48553;50.766;2.900;2024-01-25T06:03:13;102244.66;;;6.48;100.00
60852;BME280;48553;50.766;2.900;2024-01-25T06:06:13;102250.38;;;6.47;100.00
60852;BME280;48553;50.766;2.900;2024-01-25T06:09:14;102243.84;;;6.48;100.00
60852;BME280;48553;50.766;2.900;2024-01-25T06:12:17;102235.69;;;6.48;100.00
60852;BME280;48553;50.766;2.900;2024-01-25T06:15:17;102236.50;;;6.48;100.00
60852;BME280;48553;50.766;2.900;2024-01-25T06:18:18;102235.94;;;6.46;100.00
60852;BME280;48553;50.766;2.900;2024-01-25T06:21:18;102235.94;;;6.46;100.00
60852;BME280;48553;50.766;2.900;2024-01-25T06:24:18;102244.41;;;6.45;100.00
60852;BME280;48553;50.766;2.900;2024-01-25T06:27:19;102244.66;;;6.43;100.00
60852;BME280;48553;50.766;2.900;2024-01-25T06:30:19;102243.56;;;6.44;100.00
60852;BME280;48553;50.766;2.900;2024-01-25T06:33:22;102240.03;;;6.44;100.00
60852;BME280;48553;50.766;2.900;2024-01-25T06:36:23;102240.28;;;6.42;100.00
60852;BME280;48553;50.766;2.900;2024-01-25T06:39:23;102236.22;;;6.45;100.00
60852;BME280;48553;50.766;2.900;2024-01-25T06:42:24;102230.78;;;6.45;100.00
60852;BME280;48553;50.766;2.900;2024-01-25T06:45:24;102229.94;;;6.44;100.00
60852;BME280;48553;50.766;2.900;2024-01-25T06:48:24;102226.41;;;6.44;100.00
60852;BME280;48553;50.766;2.900;2024-01-25T06:51:25;102241.69;;;6.45;100.00
60852;BME280;48553;50.766;2.900;2024-01-25T06:54:25;102238.94;;;6.45;100.00
60852;BME280;48553;50.766;2.900;2024-01-25T06:57:26;102232.41;;;6.46;100.00
60852;BME280;48553;50.766;2.900;2024-01-25T07:00:27;102222.31;;;6.46;100.00
60852;BME280;48553;50.766;2.900;2024-01-25T07:03:27;102230.78;;;6.45;100.00
60852;BME280;48553;50.766;2.900;2024-01-25T07:06:28;102223.97;;;6.47;100.00
60852;BME280;48553;50.766;2.900;2024-01-25T07:09:28;102234.31;;;6.45;100.00
60852;BME280;48553;50.766;2.900;2024-01-25T07:12:29;102228.88;;;6.45;100.00
60852;BME280;48553;50.766;2.900;2024-01-25T07:15:29;102224.50;;;6.44;100.00
60852;BME280;48553;50.766;2.900;2024-01-25T07:18:30;102231.31;;;6.47;100.00
60852;BME280;48553;50.766;2.900;2024-01-25T07:21:30;102232.41;;;6.46;100.00
60852;BME280;48553;50.766;2.900;2024-01-25T07:24:34;102226.16;;;6.45;100.00
60852;BME280;48553;50.766;2.900;2024-01-25T07:27:34;102230.78;;;6.45;100.00
60852;BME280;48553;50.766;2.900;2024-01-25T07:30:35;102230.50;;;6.46;100.00
60852;BME280;48553;50.766;2.900;2024-01-25T07:33:35;102230.50;;;6.46;100.00
60852;BME280;48553;50.766;2.900;2024-01-25T07:36:37;102232.16;;;6.47;100.00
60852;BME280;48553;50.766;2.900;2024-01-25T07:39:37;102227.78;;;6.46;100.00
60852;BME280;48553;50.766;2.900;2024-01-25T07:42:38;102222.88;;;6.48;100.00
60852;BME280;48553;50.766;2.900;2024-01-25T07:45:38;102220.16;;;6.48;100.00
60852;BME280;48553;50.766;2.900;2024-01-25T07:48:40;102220.69;;;6.51;100.00
60852;BME280;48553;50.766;2.900;2024-01-25T07:51:40;102227.25;;;6.50;100.00
60852;BME280;48553;50.766;2.900;2024-01-25T07:54:41;102218.53;;;6.53;100.00
60852;BME280;48553;50.766;2.900;2024-01-25T07:57:41;102225.59;;;6.54;100.00
60852;BME280;48553;50.766;2.900;2024-01-25T08:00:42;102218.25;;;6.54;100.00
60852;BME280;48553;50.766;2.900;2024-01-25T08:03:42;102220.16;;;6.54;100.00
60852;BME280;48553;50.766;2.900;2024-01-25T08:06:43;102215.53;;;6.54;100.00
60852;BME280;48553;50.766;2.900;2024-01-25T08:09:43;102206.00;;;6.57;100.00
60852;BME280;48553;50.766;2.900;2024-01-25T08:12:44;102204.91;;;6.58;100.00
60852;BME280;48553;50.766;2.900;2024-01-25T08:15:47;102203.53;;;6.55;100.00
60852;BME280;48553;50.766;2.900;2024-01-25T08:18:48;102192.66;;;6.55;100.00
60852;BME280;48553;50.766;2.900;2024-01-25T08:21:48;102202.16;;;6.58;100.00
60852;BME280;48553;50.766;2.900;2024-01-25T08:24:49;102202.97;;;6.58;100.00
60852;BME280;48553;50.766;2.900;2024-01-25T08:27:50;102207.91;;;6.61;100.00
60852;BME280;48553;50.766;2.900;2024-01-25T08:30:50;102197.81;;;6.62;100.00
60852;BME280;48553;50.766;2.900;2024-01-25T08:33:51;102196.44;;;6.64;100.00
60852;BME280;48553;50.766;2.900;2024-01-25T08:36:51;102201.63;;;6.66;100.00
60852;BME280;48553;50.766;2.900;2024-01-25T08:39:52;102195.09;;;6.67;100.00
60852;BME280;48553;50.766;2.900;2024-01-25T08:42:52;102203.00;;;6.68;100.00
60852;BME280;48553;50.766;2.900;2024-01-25T08:45:53;102198.91;;;6.71;100.00
60852;BME280;48553;50.766;2.900;2024-01-25T08:48:53;102206.81;;;6.73;100.00
60852;BME280;48553;50.766;2.900;2024-01-25T08:51:53;102195.34;;;6.76;100.00
60852;BME280;48553;50.766;2.900;2024-01-25T08:54:54;102193.72;;;6.75;100.00
60852;BME280;48553;50.766;2.900;2024-01-25T08:57:54;102198.06;;;6.76;100.00
60852;BME280;48553;50.766;2.900;2024-01-25T09:00:55;102188.81;;;6.77;100.00
60852;BME280;48553;50.766;2.900;2024-01-25T09:03:55;102198.63;;;6.78;100.00
60852;BME280;48553;50.766;2.900;2024-01-25T09:06:58;102189.88;;;6.81;100.00
60852;BME280;48553;50.766;2.900;2024-01-25T09:09:58;102195.34;;;6.81;100.00
60852;BME280;48553;50.766;2.900;2024-01-25T09:12:58;102188.00;;;6.81;100.00
60852;BME280;48553;50.766;2.900;2024-01-25T09:15:59;102178.72;;;6.82;100.00
60852;BME280;48553;50.766;2.900;2024-01-25T09:18:59;102194.25;;;6.82;100.00
60852;BME280;48553;50.766;2.900;2024-01-25T09:22:00;102193.97;;;6.83;100.00
60852;BME280;48553;50.766;2.900;2024-01-25T09:25:04;102178.72;;;6.87;100.00
60852;BME280;48553;50.766;2.900;2024-01-25T09:28:05;102177.91;;;6.87;100.00
60852;BME280;48553;50.766;2.900;2024-01-25T09:31:06;102184.97;;;6.88;100.00
60852;BME280;48553;50.766;2.900;2024-01-25T09:34:06;102173.81;;;6.89;100.00
60852;BME280;48553;50.766;2.900;2024-01-25T09:37:07;102168.09;;;6.91;100.00
60852;BME280;48553;50.766;2.900;2024-01-25T09:40:07;102166.72;;;6.94;100.00
60852;BME280;48553;50.766;2.900;2024-01-25T09:43:08;102168.34;;;6.95;100.00
60852;BME280;48553;50.766;2.900;2024-01-25T09:46:13;102168.34;;;6.95;100.00
60852;BME280;48553;50.766;2.900;2024-01-25T09:49:13;102172.44;;;6.97;100.00
60852;BME280;48553;50.766;2.900;2024-01-25T09:52:16;102169.16;;;7.00;100.00
60852;BME280;48553;50.766;2.900;2024-01-25T09:55:17;102163.44;;;7.02;100.00
60852;BME280;48553;50.766;2.900;2024-01-25T09:58:20;102166.69;;;7.04;100.00
60852;BME280;48553;50.766;2.900;2024-01-25T10:01:20;102159.59;;;7.03;100.00
60852;BME280;48553;50.766;2.900;2024-01-25T10:04:21;102159.34;;;7.04;100.00
60852;BME280;48553;50.766;2.900;2024-01-25T10:07:40;102165.34;;;7.06;100.00
60852;BME280;48553;50.766;2.900;2024-01-25T10:10:40;102166.94;;;7.07;100.00
60852;BME280;48553;50.766;2.900;2024-01-25T10:13:41;102168.03;;;7.11;100.00
60852;BME280;48553;50.766;2.900;2024-01-25T10:16:42;102176.75;;;7.14;100.00
60852;BME280;48553;50.766;2.900;2024-01-25T10:19:44;102172.13;;;7.14;100.00
60852;BME280;48553;50.766;2.900;2024-01-25T10:22:44;102168.00;;;7.17;100.00
60852;BME280;48553;50.766;2.900;2024-01-25T10:25:45;102169.94;;;7.16;100.00
60852;BME280;48553;50.766;2.900;2024-01-25T10:28:54;102163.66;;;7.16;100.00
60852;BME280;48553;50.766;2.900;2024-01-25T10:31:55;102161.47;;;7.18;100.00
60852;BME280;48553;50.766;2.900;2024-01-25T10:34:56;102168.56;;;7.19;100.00
60852;BME280;48553;50.766;2.900;2024-01-25T10:37:56;102170.19;;;7.20;100.00
60852;BME280;48553;50.766;2.900;2024-01-25T10:40:59;102143.75;;;7.20;100.00
60852;BME280;48553;50.766;2.900;2024-01-25T10:44:01;102150.81;;;7.21;100.00
60852;BME280;48553;50.766;2.900;2024-01-25T10:47:02;102151.38;;;7.23;100.00
60852;BME280;48553;50.766;2.900;2024-01-25T10:50:03;102155.72;;;7.24;100.00
60852;BME280;48553;50.766;2.900;2024-01-25T10:53:07;102152.72;;;7.26;100.00
60852;BME280;48553;50.766;2.900;2024-01-25T10:56:09;102157.34;;;7.25;100.00
60852;BME280;48553;50.766;2.900;2024-01-25T10:59:13;102143.44;;;7.27;100.00
60852;BME280;48553;50.766;2.900;2024-01-25T11:02:18;102149.44;;;7.29;100.00
60852;BME280;48553;50.766;2.900;2024-01-25T11:05:20;102136.06;;;7.32;100.00
60852;BME280;48553;50.766;2.900;2024-01-25T11:08:20;102130.59;;;7.32;100.00
60852;BME280;48553;50.766;2.900;2024-01-25T11:11:21;102124.34;;;7.32;100.00
60852;BME280;48553;50.766;2.900;2024-01-25T11:14:22;102129.22;;;7.35;100.00
60852;BME280;48553;50.766;2.900;2024-01-25T11:17:25;102123.50;;;7.37;100.00
60852;BME280;48553;50.766;2.900;2024-01-25T11:20:27;102116.94;;;7.38;100.00
60852;BME280;48553;50.766;2.900;2024-01-25T11:23:31;102110.09;;;7.40;100.00
60852;BME280;48553;50.766;2.900;2024-01-25T11:26:32;102104.09;;;7.43;100.00
60852;BME280;48553;50.766;2.900;2024-01-25T11:29:33;102110.63;;;7.42;100.00
60852;BME280;48553;50.766;2.900;2024-01-25T11:32:33;102099.19;;;7.45;100.00
60852;BME280;48553;50.766;2.900;2024-01-25T11:35:34;102095.88;;;7.48;100.00
60852;BME280;48553;50.766;2.900;2024-01-25T11:38:36;102086.63;;;7.49;100.00
60852;BME280;48553;50.766;2.900;2024-01-25T11:41:37;102081.66;;;7.51;100.00
60852;BME280;48553;50.766;2.900;2024-01-25T11:44:37;102069.09;;;7.56;100.00
60852;BME280;48553;50.766;2.900;2024-01-25T11:47:40;102065.00;;;7.58;100.00
60852;BME280;48553;50.766;2.900;2024-01-25T11:50:41;102054.34;;;7.62;100.00
60852;BME280;48553;50.766;2.900;2024-01-25T11:53:41;102054.28;;;7.67;100.00
60852;BME280;48553;50.766;2.900;2024-01-25T11:56:42;102045.25;;;7.71;100.00
60852;BME280;48553;50.766;2.900;2024-01-25T11:59:43;102037.84;;;7.77;100.00
60852;BME280;48553;50.766;2.900;2024-01-25T12:02:46;102032.41;;;7.77;100.00
60852;BME280;48553;50.766;2.900;2024-01-25T12:05:46;102031.53;;;7.82;100.00
60852;BME280;48553;50.766;2.900;2024-01-25T12:08:47;102032.03;;;7.89;100.00
60852;BME280;48553;50.766;2.900;2024-01-25T12:11:51;102033.66;;;7.90;100.00
60852;BME280;48553;50.766;2.900;2024-01-25T12:14:57;102030.84;;;8.00;100.00
60852;BME280;48553;50.766;2.900;2024-01-25T12:17:58;102028.91;;;8.01;100.00
60852;BME280;48553;50.766;2.900;2024-01-25T12:20:59;102025.31;;;8.05;100.00
60852;BME280;48553;50.766;2.900;2024-01-25T12:24:01;102029.44;;;8.03;100.00
60852;BME280;48553;50.766;2.900;2024-01-25T12:27:02;102024.47;;;8.10;100.00
60852;BME280;48553;50.766;2.900;2024-01-25T12:30:03;102020.94;;;8.09;100.00
60852;BME280;48553;50.766;2.900;2024-01-25T12:33:04;102016.00;;;8.11;100.00
60852;BME280;48553;50.766;2.900;2024-01-25T12:36:05;102015.00;;;8.26;100.00
60852;BME280;48553;50.766;2.900;2024-01-25T12:39:05;102010.09;;;8.28;100.00
60852;BME280;48553;50.766;2.900;2024-01-25T12:42:07;102015.06;;;8.21;100.00
60852;BME280;48553;50.766;2.900;2024-01-25T12:45:08;102007.31;;;8.33;100.00
60852;BME280;48553;50.766;2.900;2024-01-25T12:48:09;101999.75;;;8.25;100.00
60852;BME280;48553;50.766;2.900;2024-01-25T12:51:09;101990.75;;;8.25;100.00
60852;BME280;48553;50.766;2.900;2024-01-25T12:54:09;101986.63;;;8.27;100.00
60852;BME280;48553;50.766;2.900;2024-01-25T12:57:10;101983.00;;;8.32;100.00
60852;BME280;48553;50.766;2.900;2024-01-25T13:00:11;101981.09;;;8.32;100.00
60852;BME280;48553;50.766;2.900;2024-01-25T13:03:12;101971.50;;;8.35;100.00
60852;BME280;48553;50.766;2.900;2024-01-25T13:06:12;101962.44;;;8.40;100.00
60852;BME280;48553;50.766;2.900;2024-01-25T13:09:13;101955.59;;;8.42;100.00
60852;BME280;48553;50.766;2.900;2024-01-25T13:12:15;101961.38;;;8.41;100.00
60852;BME280;48553;50.766;2.900;2024-01-25T13:15:15;101960.72;;;8.49;100.00
60852;BME280;48553;50.766;2.900;2024-01-25T13:18:15;101950.84;;;8.53;100.00
60852;BME280;48553;50.766;2.900;2024-01-25T13:21:16;101947.50;;;8.56;100.00
60852;BME280;48553;50.766;2.900;2024-01-25T13:24:17;101945.53;;;8.62;100.00
60852;BME280;48553;50.766;2.900;2024-01-25T13:27:18;101934.38;;;8.58;100.00
60852;BME280;48553;50.766;2.900;2024-01-25T13:30:18;101942.56;;;8.58;100.00
60852;BME280;48553;50.766;2.900;2024-01-25T13:33:19;101934.25;;;8.68;100.00
60852;BME280;48553;50.766;2.900;2024-01-25T13:36:19;101931.44;;;8.73;100.00
60852;BME280;48553;50.766;2.900;2024-01-25T13:39:20;101925.16;;;8.73;100.00
60852;BME280;48553;50.766;2.900;2024-01-25T13:42:20;101921.91;;;8.71;100.00
60852;BME280;48553;50.766;2.900;2024-01-25T13:45:21;101924.00;;;8.79;100.00
60852;BME280;48553;50.766;2.900;2024-01-25T13:48:21;101923.13;;;8.84;100.00
60852;BME280;48553;50.766;2.900;2024-01-25T13:51:22;101922.22;;;8.88;100.00
60852;BME280;48553;50.766;2.900;2024-01-25T13:54:22;101909.97;;;8.86;100.00
60852;BME280;48553;50.766;2.900;2024-01-25T13:57:23;101916.25;;;8.86;100.00
60852;BME280;48553;50.766;2.900;2024-01-25T14:00:24;101910.25;;;8.84;100.00
60852;BME280;48553;50.766;2.900;2024-01-25T14:03:24;101915.13;;;8.87;100.00
60852;BME280;48553;50.766;2.900;2024-01-25T14:06:25;101908.84;;;8.87;100.00
60852;BME280;48553;50.766;2.900;2024-01-25T14:09:28;101902.22;;;8.93;100.00
60852;BME280;48553;50.766;2.900;2024-01-25T14:12:29;101891.19;;;8.98;100.00
60852;BME280;48553;50.766;2.900;2024-01-25T14:15:30;101891.09;;;9.03;100.00
60852;BME280;48553;50.766;2.900;2024-01-25T14:18:36;101891.25;;;9.12;100.00
60852;BME280;48553;50.766;2.900;2024-01-25T14:21:37;101881.50;;;9.06;100.00
60852;BME280;48553;50.766;2.900;2024-01-25T14:24:38;101876.25;;;9.09;100.00
60852;BME280;48553;50.766;2.900;2024-01-25T14:27:38;101870.16;;;9.12;100.00
60852;BME280;48553;50.766;2.900;2024-01-25T14:30:38;101877.19;;;9.18;100.00
60852;BME280;48553;50.766;2.900;2024-01-25T14:33:39;101876.28;;;9.23;100.00
60852;BME280;48553;50.766;2.900;2024-01-25T14:36:40;101872.66;;;9.28;100.00
60852;BME280;48553;50.766;2.900;2024-01-25T14:39:40;101869.31;;;9.31;100.00
60852;BME280;48553;50.766;2.900;2024-01-25T14:42:41;101864.97;;;9.30;100.00
60852;BME280;48553;50.766;2.900;2024-01-25T14:45:42;101858.69;;;9.29;100.00
60852;BME280;48553;50.766;2.900;2024-01-25T14:48:43;101868.00;;;9.28;100.00
60852;BME280;48553;50.766;2.900;2024-01-25T14:51:43;101859.13;;;9.36;100.00
60852;BME280;48553;50.766;2.900;2024-01-25T14:54:43;101861.56;;;9.38;100.00
60852;BME280;48553;50.766;2.900;2024-01-25T14:57:44;101856.56;;;9.40;100.00
60852;BME280;48553;50.766;2.900;2024-01-25T15:00:44;101860.94;;;9.41;100.00
60852;BME280;48553;50.766;2.900;2024-01-25T15:03:45;101865.91;;;9.39;100.00
60852;BME280;48553;50.766;2.900;2024-01-25T15:06:45;101857.41;;;9.40;100.00
60852;BME280;48553;50.766;2.900;2024-01-25T15:09:46;101857.69;;;9.39;100.00
60852;BME280;48553;50.766;2.900;2024-01-25T15:12:46;101852.22;;;9.39;100.00
60852;BME280;48553;50.766;2.900;2024-01-25T15:15:46;101863.16;;;9.39;100.00
60852;BME280;48553;50.766;2.900;2024-01-25T15:18:47;101862.88;;;9.40;100.00
60852;BME280;48553;50.766;2.900;2024-01-25T15:21:47;101845.63;;;9.40;100.00
60852;BME280;48553;50.766;2.900;2024-01-25T15:24:48;101847.88;;;9.38;100.00
60852;BME280;48553;50.766;2.900;2024-01-25T15:27:48;101856.91;;;9.38;100.00
60852;BME280;48553;50.766;2.900;2024-01-25T15:30:49;101853.66;;;9.36;100.00
60852;BME280;48553;50.766;2.900;2024-01-25T15:33:49;101850.09;;;9.36;100.00
60852;BME280;48553;50.766;2.900;2024-01-25T15:36:50;101844.13;;;9.34;100.00
60852;BME280;48553;50.766;2.900;2024-01-25T15:39:51;101848.19;;;9.36;100.00
60852;BME280;48553;50.766;2.900;2024-01-25T15:42:51;101848.47;;;9.35;100.00
60852;BME280;48553;50.766;2.900;2024-01-25T15:45:54;101849.59;;;9.34;100.00